sensor_id;sensor_type;location;lat;lon;timestamp;P1;durP1;ratioP1;P2;durP2;ratioP2
17763;SDS011;22245;52.832;13.816;2023-02-01T00:01:44;13.73;;;2.17;;
17763;SDS011;22245;52.832;13.816;2023-02-01T00:05:06;12.57;;;2.27;;
17763;SDS011;22245;52.832;13.816;2023-02-01T00:08:28;13.40;;;2.30;;
17763;SDS011;22245;52.832;13.816;2023-02-01T00:11:50;11.07;;;2.50;;
17763;SDS011;22245;52.832;13.816;2023-02-01T00:15:14;14.57;;;3.13;;
17763;SDS011;22245;52.832;13.816;2023-02-01T00:18:35;13.57;;;2.77;;
17763;SDS011;22245;52.832;13.816;2023-02-01T00:21:57;13.60;;;2.27;;
17763;SDS011;22245;52.832;13.816;2023-02-01T00:25:19;13.10;;;2.87;;
17763;SDS011;22245;52.832;13.816;2023-02-01T00:28:41;13.83;;;2.50;;
17763;SDS011;22245;52.832;13.816;2023-02-01T00:32:04;14.30;;;2.80;;
17763;SDS011;22245;52.832;13.816;2023-02-01T00:35:26;14.50;;;3.10;;
17763;SDS011;22245;52.832;13.816;2023-02-01T00:38:48;10.40;;;2.63;;
17763;SDS011;22245;52.832;13.816;2023-02-01T00:42:09;16.37;;;2.60;;
17763;SDS011;22245;52.832;13.816;2023-02-01T00:45:31;10.87;;;2.40;;
17763;SDS011;22245;52.832;13.816;2023-02-01T00:48:55;11.47;;;2.57;;
17763;SDS011;22245;52.832;13.816;2023-02-01T00:52:18;14.80;;;2.80;;
17763;SDS011;22245;52.832;13.816;2023-02-01T00:55:40;16.53;;;3.47;;
17763;SDS011;22245;52.832;13.816;2023-02-01T00:59:02;22.33;;;3.70;;
17763;SDS011;22245;52.832;13.816;2023-02-01T01:02:24;14.67;;;3.00;;
17763;SDS011;22245;52.832;13.816;2023-02-01T01:05:48;12.47;;;2.67;;
17763;SDS011;22245;52.832;13.816;2023-02-01T01:09:10;14.40;;;2.90;;
17763;SDS011;22245;52.832;13.816;2023-02-01T01:12:31;15.33;;;3.70;;
17763;SDS011;22245;52.832;13.816;2023-02-01T01:15:53;14.03;;;2.93;;
17763;SDS011;22245;52.832;13.816;2023-02-01T01:19:15;14.10;;;2.80;;
17763;SDS011;22245;52.832;13.816;2023-02-01T01:22:38;14.00;;;2.43;;
17763;SDS011;22245;52.832;13.816;2023-02-01T01:25:59;17.67;;;2.80;;
17763;SDS011;22245;52.832;13.816;2023-02-01T01:29:22;14.03;;;3.50;;
17763;SDS011;22245;52.832;13.816;2023-02-01T01:32:44;16.97;;;3.20;;
17763;SDS011;22245;52.832;13.816;2023-02-01T01:36:06;12.20;;;2.37;;
17763;SDS011;22245;52.832;13.816;2023-02-01T01:39:31;14.77;;;2.77;;
17763;SDS011;22245;52.832;13.816;2023-02-01T01:42:55;13.83;;;3.20;;
17763;SDS011;22245;52.832;13.816;2023-02-01T01:46:18;15.00;;;2.60;;
17763;SDS011;22245;52.832;13.816;2023-02-01T01:49:40;20.97;;;3.60;;
17763;SDS011;22245;52.832;13.816;2023-02-01T01:53:03;11.27;;;2.30;;
17763;SDS011;22245;52.832;13.816;2023-02-01T01:56:28;13.13;;;2.37;;
17763;SDS011;22245;52.832;13.816;2023-02-01T01:59:53;10.80;;;1.90;;
17763;SDS011;22245;52.832;13.816;2023-02-01T02:03:20;13.63;;;2.10;;
17763;SDS011;22245;52.832;13.816;2023-02-01T02:06:45;12.07;;;2.20;;
17763;SDS011;22245;52.832;13.816;2023-02-01T02:10:11;9.07;;;1.70;;
17763;SDS011;22245;52.832;13.816;2023-02-01T02:13:37;10.37;;;2.13;;
17763;SDS011;22245;52.832;13.816;2023-02-01T02:17:07;9.10;;;2.10;;
17763;SDS011;22245;52.832;13.816;2023-02-01T02:20:53;12.93;;;2.17;;
17763;SDS011;22245;52.832;13.816;2023-02-01T02:24:47;10.43;;;2.27;;
17763;SDS011;22245;52.832;13.816;2023-02-01T02:28:32;16.23;;;2.43;;
17763;SDS011;22245;52.832;13.816;2023-02-01T02:32:21;15.27;;;2.60;;
17763;SDS011;22245;52.832;13.816;2023-02-01T02:35:56;8.77;;;2.00;;
17763;SDS011;22245;52.832;13.816;2023-02-01T02:39:26;12.03;;;2.40;;
17763;SDS011;22245;52.832;13.816;2023-02-01T02:42:58;10.07;;;2.10;;
17763;SDS011;22245;52.832;13.816;2023-02-01T02:46:45;17.80;;;3.13;;
17763;SDS011;22245;52.832;13.816;2023-02-01T02:50:29;14.10;;;3.40;;
17763;SDS011;22245;52.832;13.816;2023-02-01T02:54:17;11.53;;;2.53;;
17763;SDS011;22245;52.832;13.816;2023-02-01T02:57:59;12.90;;;2.30;;
17763;SDS011;22245;52.832;13.816;2023-02-01T03:01:39;17.67;;;3.60;;
17763;SDS011;22245;52.832;13.816;2023-02-01T03:05:18;11.53;;;2.40;;
17763;SDS011;22245;52.832;13.816;2023-02-01T03:08:41;12.47;;;2.60;;
17763;SDS011;22245;52.832;13.816;2023-02-01T03:12:07;12.83;;;2.73;;
17763;SDS011;22245;52.832;13.816;2023-02-01T03:15:52;13.63;;;3.30;;
17763;SDS011;22245;52.832;13.816;2023-02-01T03:19:21;10.10;;;1.97;;
17763;SDS011;22245;52.832;13.816;2023-02-01T03:22:45;14.93;;;2.57;;
17763;SDS011;22245;52.832;13.816;2023-02-01T03:26:10;11.40;;;2.67;;
17763;SDS011;22245;52.832;13.816;2023-02-01T03:29:38;12.93;;;2.37;;
17763;SDS011;22245;52.832;13.816;2023-02-01T03:33:06;11.17;;;2.50;;
17763;SDS011;22245;52.832;13.816;2023-02-01T03:36:35;11.23;;;3.17;;
17763;SDS011;22245;52.832;13.816;2023-02-01T03:40:03;16.57;;;2.63;;
17763;SDS011;22245;52.832;13.816;2023-02-01T03:43:29;17.90;;;3.00;;
17763;SDS011;22245;52.832;13.816;2023-02-01T03:46:57;16.27;;;2.90;;
17763;SDS011;22245;52.832;13.816;2023-02-01T03:50:21;17.57;;;3.00;;
17763;SDS011;22245;52.832;13.816;2023-02-01T03:53:45;15.43;;;2.67;;
17763;SDS011;22245;52.832;13.816;2023-02-01T03:57:10;15.10;;;3.70;;
17763;SDS011;22245;52.832;13.816;2023-02-01T04:00:34;21.00;;;3.00;;
17763;SDS011;22245;52.832;13.816;2023-02-01T04:03:58;16.70;;;3.00;;
17763;SDS011;22245;52.832;13.816;2023-02-01T04:07:19;18.57;;;3.50;;
17763;SDS011;22245;52.832;13.816;2023-02-01T04:10:41;14.63;;;3.00;;
17763;SDS011;22245;52.832;13.816;2023-02-01T04:14:03;17.60;;;3.00;;
17763;SDS011;22245;52.832;13.816;2023-02-01T04:17:25;17.50;;;3.50;;
17763;SDS011;22245;52.832;13.816;2023-02-01T04:20:49;16.97;;;3.60;;
17763;SDS011;22245;52.832;13.816;2023-02-01T04:24:10;14.67;;;2.67;;
17763;SDS011;22245;52.832;13.816;2023-02-01T04:27:32;24.67;;;4.43;;
17763;SDS011;22245;52.832;13.816;2023-02-01T04:30:54;22.07;;;3.47;;
17763;SDS011;22245;52.832;13.816;2023-02-01T04:34:16;13.33;;;2.87;;
17763;SDS011;22245;52.832;13.816;2023-02-01T04:37:39;16.97;;;3.50;;
17763;SDS011;22245;52.832;13.816;2023-02-01T04:41:01;16.07;;;3.33;;
17763;SDS011;22245;52.832;13.816;2023-02-01T04:44:23;16.87;;;2.80;;
17763;SDS011;22245;52.832;13.816;2023-02-01T04:47:45;14.27;;;2.90;;
17763;SDS011;22245;52.832;13.816;2023-02-01T04:51:08;16.57;;;3.67;;
17763;SDS011;22245;52.832;13.816;2023-02-01T04:54:32;19.30;;;4.17;;
17763;SDS011;22245;52.832;13.816;2023-02-01T04:57:54;16.87;;;3.13;;
17763;SDS011;22245;52.832;13.816;2023-02-01T05:01:17;18.73;;;3.10;;
17763;SDS011;22245;52.832;13.816;2023-02-01T05:04:38;17.13;;;3.13;;
17763;SDS011;22245;52.832;13.816;2023-02-01T05:08:00;18.13;;;3.60;;
17763;SDS011;22245;52.832;13.816;2023-02-01T05:11:23;13.97;;;3.20;;
17763;SDS011;22245;52.832;13.816;2023-02-01T05:15:03;18.93;;;3.33;;
17763;SDS011;22245;52.832;13.816;2023-02-01T05:18:25;16.50;;;3.07;;
17763;SDS011;22245;52.832;13.816;2023-02-01T05:21:47;17.30;;;3.70;;
17763;SDS011;22245;52.832;13.816;2023-02-01T05:25:08;16.13;;;3.57;;
17763;SDS011;22245;52.832;13.816;2023-02-01T05:28:31;17.10;;;3.00;;
17763;SDS011;22245;52.832;13.816;2023-02-01T05:31:53;18.07;;;3.50;;
17763;SDS011;22245;52.832;13.816;2023-02-01T05:35:16;15.03;;;3.43;;
17763;SDS011;22245;52.832;13.816;2023-02-01T05:38:38;17.63;;;3.67;;
17763;SDS011;22245;52.832;13.816;2023-02-01T05:41:59;22.57;;;3.87;;
17763;SDS011;22245;52.832;13.816;2023-02-01T05:45:23;13.40;;;2.83;;
17763;SDS011;22245;52.832;13.816;2023-02-01T05:48:44;21.87;;;3.20;;
17763;SDS011;22245;52.832;13.816;2023-02-01T05:52:05;15.83;;;3.00;;
17763;SDS011;22245;52.832;13.816;2023-02-01T05:55:27;23.10;;;3.63;;
17763;SDS011;22245;52.832;13.816;2023-02-01T05:58:49;12.97;;;3.17;;
17763;SDS011;22245;52.832;13.816;2023-02-01T06:02:12;21.10;;;4.07;;
17763;SDS011;22245;52.832;13.816;2023-02-01T06:05:34;18.73;;;3.17;;
17763;SDS011;22245;52.832;13.816;2023-02-01T06:08:57;16.83;;;3.47;;
17763;SDS011;22245;52.832;13.816;2023-02-01T06:12:19;16.73;;;3.70;;
17763;SDS011;22245;52.832;13.816;2023-02-01T06:15:41;16.43;;;3.47;;
17763;SDS011;22245;52.832;13.816;2023-02-01T06:19:05;14.43;;;3.20;;
17763;SDS011;22245;52.832;13.816;2023-02-01T06:22:27;16.07;;;3.50;;
17763;SDS011;22245;52.832;13.816;2023-02-01T06:25:48;24.47;;;3.33;;
17763;SDS011;22245;52.832;13.816;2023-02-01T06:29:10;13.73;;;2.90;;
17763;SDS011;22245;52.832;13.816;2023-02-01T06:32:32;17.60;;;3.40;;
17763;SDS011;22245;52.832;13.816;2023-02-01T06:35:58;18.43;;;3.37;;
17763;SDS011;22245;52.832;13.816;2023-02-01T06:39:21;16.50;;;3.37;;
17763;SDS011;22245;52.832;13.816;2023-02-01T06:42:43;15.20;;;3.30;;
17763;SDS011;22245;52.832;13.816;2023-02-01T06:46:05;13.93;;;3.30;;
17763;SDS011;22245;52.832;13.816;2023-02-01T06:49:29;16.33;;;3.13;;
17763;SDS011;22245;52.832;13.816;2023-02-01T06:52:53;10.90;;;2.50;;
17763;SDS011;22245;52.832;13.816;2023-02-01T06:56:14;17.17;;;3.00;;
17763;SDS011;22245;52.832;13.816;2023-02-01T06:59:37;15.17;;;3.20;;
17763;SDS011;22245;52.832;13.816;2023-02-01T07:02:59;11.17;;;2.80;;
17763;SDS011;22245;52.832;13.816;2023-02-01T07:06:21;11.97;;;2.60;;
17763;SDS011;22245;52.832;13.816;2023-02-01T07:09:44;11.50;;;3.03;;
17763;SDS011;22245;52.832;13.816;2023-02-01T07:13:06;15.40;;;3.20;;
17763;SDS011;22245;52.832;13.816;2023-02-01T07:16:27;13.43;;;3.10;;
17763;SDS011;22245;52.832;13.816;2023-02-01T07:19:50;9.30;;;2.60;;
17763;SDS011;22245;52.832;13.816;2023-02-01T07:23:12;13.00;;;2.67;;
17763;SDS011;22245;52.832;13.816;2023-02-01T07:26:35;13.20;;;3.53;;
17763;SDS011;22245;52.832;13.816;2023-02-01T07:29:57;16.70;;;4.00;;
17763;SDS011;22245;52.832;13.816;2023-02-01T07:33:22;15.63;;;3.27;;
17763;SDS011;22245;52.832;13.816;2023-02-01T07:36:47;16.30;;;3.53;;
17763;SDS011;22245;52.832;13.816;2023-02-01T07:40:10;15.67;;;3.27;;
17763;SDS011;22245;52.832;13.816;2023-02-01T07:43:34;17.60;;;3.70;;
17763;SDS011;22245;52.832;13.816;2023-02-01T07:46:56;15.03;;;3.13;;
17763;SDS011;22245;52.832;13.816;2023-02-01T07:50:18;20.13;;;3.93;;
17763;SDS011;22245;52.832;13.816;2023-02-01T07:53:40;17.27;;;3.67;;
17763;SDS011;22245;52.832;13.816;2023-02-01T07:57:03;18.43;;;4.43;;
17763;SDS011;22245;52.832;13.816;2023-02-01T08:00:26;16.40;;;3.30;;
17763;SDS011;22245;52.832;13.816;2023-02-01T08:04:05;16.97;;;3.93;;
17763;SDS011;22245;52.832;13.816;2023-02-01T08:07:27;13.23;;;3.50;;
17763;SDS011;22245;52.832;13.816;2023-02-01T08:10:49;11.67;;;3.37;;
17763;SDS011;22245;52.832;13.816;2023-02-01T08:14:11;18.17;;;3.70;;
17763;SDS011;22245;52.832;13.816;2023-02-01T08:17:34;16.27;;;3.73;;
17763;SDS011;22245;52.832;13.816;2023-02-01T08:20:55;18.53;;;3.50;;
17763;SDS011;22245;52.832;13.816;2023-02-01T08:24:16;14.60;;;3.57;;
17763;SDS011;22245;52.832;13.816;2023-02-01T08:27:38;11.77;;;3.60;;
17763;SDS011;22245;52.832;13.816;2023-02-01T08:31:03;10.93;;;2.97;;
17763;SDS011;22245;52.832;13.816;2023-02-01T08:34:27;16.17;;;3.80;;
17763;SDS011;22245;52.832;13.816;2023-02-01T08:37:50;13.07;;;3.20;;
17763;SDS011;22245;52.832;13.816;2023-02-01T08:41:13;12.43;;;3.97;;
17763;SDS011;22245;52.832;13.816;2023-02-01T08:44:36;15.80;;;3.13;;
17763;SDS011;22245;52.832;13.816;2023-02-01T08:47:58;10.10;;;3.80;;
17763;SDS011;22245;52.832;13.816;2023-02-01T08:51:22;13.27;;;3.03;;
17763;SDS011;22245;52.832;13.816;2023-02-01T08:54:45;9.77;;;2.70;;
17763;SDS011;22245;52.832;13.816;2023-02-01T08:58:07;10.63;;;2.57;;
17763;SDS011;22245;52.832;13.816;2023-02-01T09:01:28;9.67;;;2.10;;
17763;SDS011;22245;52.832;13.816;2023-02-01T09:04:50;12.87;;;2.33;;
17763;SDS011;22245;52.832;13.816;2023-02-01T09:08:14;7.97;;;1.60;;
17763;SDS011;22245;52.832;13.816;2023-02-01T09:11:35;5.90;;;1.40;;
17763;SDS011;22245;52.832;13.816;2023-02-01T09:14:57;3.93;;;1.20;;
17763;SDS011;22245;52.832;13.816;2023-02-01T09:18:20;3.43;;;1.53;;
17763;SDS011;22245;52.832;13.816;2023-02-01T09:21:42;3.03;;;1.10;;
17763;SDS011;22245;52.832;13.816;2023-02-01T09:25:05;2.13;;;0.90;;
17763;SDS011;22245;52.832;13.816;2023-02-01T09:28:28;1.90;;;0.90;;
17763;SDS011;22245;52.832;13.816;2023-02-01T09:31:50;4.93;;;1.00;;
17763;SDS011;22245;52.832;13.816;2023-02-01T09:35:22;2.23;;;0.70;;
17763;SDS011;22245;52.832;13.816;2023-02-01T09:38:44;1.50;;;0.70;;
17763;SDS011;22245;52.832;13.816;2023-02-01T09:42:16;4.30;;;0.80;;
17763;SDS011;22245;52.832;13.816;2023-02-01T09:45:48;1.20;;;0.70;;
17763;SDS011;22245;52.832;13.816;2023-02-01T09:49:18;2.90;;;0.60;;
17763;SDS011;22245;52.832;13.816;2023-02-01T09:52:48;2.07;;;0.90;;
17763;SDS011;22245;52.832;13.816;2023-02-01T09:56:18;1.73;;;0.80;;
17763;SDS011;22245;52.832;13.816;2023-02-01T09:59:43;5.13;;;0.93;;
17763;SDS011;22245;52.832;13.816;2023-02-01T10:03:10;2.27;;;1.00;;
17763;SDS011;22245;52.832;13.816;2023-02-01T10:06:36;2.30;;;0.80;;
17763;SDS011;22245;52.832;13.816;2023-02-01T10:10:07;2.07;;;0.83;;
17763;SDS011;22245;52.832;13.816;2023-02-01T10:13:38;4.20;;;1.30;;
17763;SDS011;22245;52.832;13.816;2023-02-01T10:17:16;4.30;;;1.17;;
17763;SDS011;22245;52.832;13.816;2023-02-01T10:20:52;2.90;;;1.03;;
17763;SDS011;22245;52.832;13.816;2023-02-01T10:24:33;5.57;;;1.30;;
17763;SDS011;22245;52.832;13.816;2023-02-01T10:27:59;4.83;;;1.30;;
17763;SDS011;22245;52.832;13.816;2023-02-01T10:31:24;4.47;;;1.33;;
17763;SDS011;22245;52.832;13.816;2023-02-01T10:34:50;3.67;;;1.33;;
17763;SDS011;22245;52.832;13.816;2023-02-01T10:38:25;5.83;;;1.30;;
17763;SDS011;22245;52.832;13.816;2023-02-01T10:41:49;4.40;;;1.20;;
17763;SDS011;22245;52.832;13.816;2023-02-01T10:45:12;3.67;;;1.00;;
17763;SDS011;22245;52.832;13.816;2023-02-01T10:48:36;5.37;;;1.20;;
17763;SDS011;22245;52.832;13.816;2023-02-01T10:52:00;4.53;;;1.60;;
17763;SDS011;22245;52.832;13.816;2023-02-01T10:55:38;7.17;;;1.30;;
17763;SDS011;22245;52.832;13.816;2023-02-01T10:59:02;11.87;;;1.53;;
17763;SDS011;22245;52.832;13.816;2023-02-01T11:02:26;6.20;;;1.33;;
17763;SDS011;22245;52.832;13.816;2023-02-01T11:05:54;8.00;;;1.57;;
17763;SDS011;22245;52.832;13.816;2023-02-01T11:09:18;7.77;;;2.03;;
17763;SDS011;22245;52.832;13.816;2023-02-01T11:12:42;6.43;;;1.40;;
17763;SDS011;22245;52.832;13.816;2023-02-01T11:16:14;4.77;;;1.63;;
17763;SDS011;22245;52.832;13.816;2023-02-01T11:19:36;6.23;;;1.73;;
17763;SDS011;22245;52.832;13.816;2023-02-01T11:22:58;3.97;;;1.53;;
17763;SDS011;22245;52.832;13.816;2023-02-01T11:26:22;6.43;;;2.10;;
17763;SDS011;22245;52.832;13.816;2023-02-01T11:29:46;8.57;;;2.07;;
17763;SDS011;22245;52.832;13.816;2023-02-01T11:33:13;9.27;;;1.93;;
17763;SDS011;22245;52.832;13.816;2023-02-01T11:36:38;10.47;;;2.03;;
17763;SDS011;22245;52.832;13.816;2023-02-01T11:40:02;7.87;;;1.83;;
17763;SDS011;22245;52.832;13.816;2023-02-01T11:43:27;5.30;;;1.40;;
17763;SDS011;22245;52.832;13.816;2023-02-01T11:46:50;9.30;;;1.63;;
17763;SDS011;22245;52.832;13.816;2023-02-01T11:50:14;7.30;;;1.67;;
17763;SDS011;22245;52.832;13.816;2023-02-01T11:53:42;7.53;;;1.50;;
17763;SDS011;22245;52.832;13.816;2023-02-01T11:57:26;7.63;;;2.00;;
17763;SDS011;22245;52.832;13.816;2023-02-01T12:01:08;5.37;;;1.60;;
17763;SDS011;22245;52.832;13.816;2023-02-01T12:04:50;6.87;;;2.03;;
17763;SDS011;22245;52.832;13.816;2023-02-01T12:08:29;8.90;;;2.10;;
17763;SDS011;22245;52.832;13.816;2023-02-01T12:12:05;8.60;;;1.70;;
17763;SDS011;22245;52.832;13.816;2023-02-01T12:15:40;5.40;;;1.60;;
17763;SDS011;22245;52.832;13.816;2023-02-01T12:19:17;6.97;;;1.73;;
17763;SDS011;22245;52.832;13.816;2023-02-01T12:22:48;9.57;;;1.97;;
17763;SDS011;22245;52.832;13.816;2023-02-01T12:26:24;5.07;;;1.90;;
17763;SDS011;22245;52.832;13.816;2023-02-01T12:30:02;9.13;;;1.70;;
17763;SDS011;22245;52.832;13.816;2023-02-01T12:33:59;5.60;;;1.50;;
17763;SDS011;22245;52.832;13.816;2023-02-01T12:37:37;2.97;;;1.07;;
17763;SDS011;22245;52.832;13.816;2023-02-01T12:41:19;3.27;;;1.30;;
17763;SDS011;22245;52.832;13.816;2023-02-01T12:44:52;6.73;;;1.40;;
17763;SDS011;22245;52.832;13.816;2023-02-01T12:48:28;4.53;;;1.30;;
17763;SDS011;22245;52.832;13.816;2023-02-01T12:51:55;3.97;;;1.27;;
17763;SDS011;22245;52.832;13.816;2023-02-01T12:55:23;6.60;;;1.60;;
17763;SDS011;22245;52.832;13.816;2023-02-01T12:58:46;8.90;;;1.70;;
17763;SDS011;22245;52.832;13.816;2023-02-01T13:02:18;7.70;;;1.60;;
17763;SDS011;22245;52.832;13.816;2023-02-01T13:05:48;6.17;;;1.50;;
17763;SDS011;22245;52.832;13.816;2023-02-01T13:09:15;6.60;;;1.63;;
17763;SDS011;22245;52.832;13.816;2023-02-01T13:12:47;5.40;;;1.50;;
17763;SDS011;22245;52.832;13.816;2023-02-01T13:16:14;7.27;;;1.20;;
17763;SDS011;22245;52.832;13.816;2023-02-01T13:19:43;7.57;;;1.23;;
17763;SDS011;22245;52.832;13.816;2023-02-01T13:23:22;3.80;;;1.00;;
17763;SDS011;22245;52.832;13.816;2023-02-01T13:26:48;4.47;;;1.20;;
17763;SDS011;22245;52.832;13.816;2023-02-01T13:30:15;2.47;;;1.27;;
17763;SDS011;22245;52.832;13.816;2023-02-01T13:33:45;4.97;;;1.27;;
17763;SDS011;22245;52.832;13.816;2023-02-01T13:37:22;3.10;;;1.03;;
17763;SDS011;22245;52.832;13.816;2023-02-01T13:40:54;3.33;;;0.90;;
17763;SDS011;22245;52.832;13.816;2023-02-01T13:44:37;3.13;;;0.80;;
17763;SDS011;22245;52.832;13.816;2023-02-01T13:48:03;3.90;;;1.00;;
17763;SDS011;22245;52.832;13.816;2023-02-01T13:51:34;5.77;;;1.30;;
17763;SDS011;22245;52.832;13.816;2023-02-01T13:55:16;4.17;;;1.03;;
17763;SDS011;22245;52.832;13.816;2023-02-01T13:58:50;6.57;;;1.87;;
17763;SDS011;22245;52.832;13.816;2023-02-01T14:06:38;4.60;;;1.10;;
17763;SDS011;22245;52.832;13.816;2023-02-01T14:14:06;5.47;;;1.63;;
17763;SDS011;22245;52.832;13.816;2023-02-01T14:17:43;6.60;;;1.67;;
17763;SDS011;22245;52.832;13.816;2023-02-01T14:21:12;10.07;;;1.47;;
17763;SDS011;22245;52.832;13.816;2023-02-01T14:24:48;5.97;;;1.60;;
17763;SDS011;22245;52.832;13.816;2023-02-01T14:28:21;7.63;;;1.93;;
17763;SDS011;22245;52.832;13.816;2023-02-01T14:31:53;6.77;;;1.30;;
17763;SDS011;22245;52.832;13.816;2023-02-01T14:35:24;8.40;;;2.13;;
17763;SDS011;22245;52.832;13.816;2023-02-01T14:38:48;7.20;;;2.20;;
17763;SDS011;22245;52.832;13.816;2023-02-01T14:42:23;10.07;;;2.00;;
17763;SDS011;22245;52.832;13.816;2023-02-01T14:45:48;8.33;;;1.90;;
17763;SDS011;22245;52.832;13.816;2023-02-01T14:49:11;5.93;;;2.13;;
17763;SDS011;22245;52.832;13.816;2023-02-01T14:52:34;11.07;;;2.40;;
17763;SDS011;22245;52.832;13.816;2023-02-01T14:56:05;9.43;;;1.77;;
17763;SDS011;22245;52.832;13.816;2023-02-01T14:59:33;9.07;;;2.40;;
17763;SDS011;22245;52.832;13.816;2023-02-01T15:03:12;7.97;;;2.50;;
17763;SDS011;22245;52.832;13.816;2023-02-01T15:06:44;8.30;;;3.33;;
17763;SDS011;22245;52.832;13.816;2023-02-01T15:10:09;11.23;;;2.30;;
17763;SDS011;22245;52.832;13.816;2023-02-01T15:13:31;4.93;;;1.60;;
17763;SDS011;22245;52.832;13.816;2023-02-01T15:16:53;4.43;;;1.57;;
17763;SDS011;22245;52.832;13.816;2023-02-01T15:20:17;5.10;;;2.07;;
17763;SDS011;22245;52.832;13.816;2023-02-01T15:23:43;3.20;;;1.60;;
17763;SDS011;22245;52.832;13.816;2023-02-01T15:27:06;4.70;;;1.83;;
17763;SDS011;22245;52.832;13.816;2023-02-01T15:30:31;7.57;;;1.53;;
17763;SDS011;22245;52.832;13.816;2023-02-01T15:33:56;5.53;;;1.47;;
17763;SDS011;22245;52.832;13.816;2023-02-01T15:37:20;7.07;;;1.50;;
17763;SDS011;22245;52.832;13.816;2023-02-01T15:40:52;6.63;;;1.80;;
17763;SDS011;22245;52.832;13.816;2023-02-01T15:47:55;7.83;;;2.97;;
17763;SDS011;22245;52.832;13.816;2023-02-01T15:51:19;6.10;;;1.80;;
17763;SDS011;22245;52.832;13.816;2023-02-01T15:54:43;6.33;;;1.83;;
17763;SDS011;22245;52.832;13.816;2023-02-01T15:58:09;6.17;;;1.80;;
17763;SDS011;22245;52.832;13.816;2023-02-01T16:01:37;8.67;;;2.10;;
17763;SDS011;22245;52.832;13.816;2023-02-01T16:05:03;5.13;;;1.90;;
17763;SDS011;22245;52.832;13.816;2023-02-01T16:08:28;7.37;;;2.10;;
17763;SDS011;22245;52.832;13.816;2023-02-01T16:11:53;7.10;;;1.97;;
17763;SDS011;22245;52.832;13.816;2023-02-01T16:15:16;5.53;;;2.03;;
17763;SDS011;22245;52.832;13.816;2023-02-01T16:18:38;6.50;;;2.00;;
17763;SDS011;22245;52.832;13.816;2023-02-01T16:22:00;2.80;;;1.63;;
17763;SDS011;22245;52.832;13.816;2023-02-01T16:25:23;4.43;;;1.63;;
17763;SDS011;22245;52.832;13.816;2023-02-01T16:28:45;5.77;;;1.77;;
17763;SDS011;22245;52.832;13.816;2023-02-01T16:32:10;2.83;;;1.13;;
17763;SDS011;22245;52.832;13.816;2023-02-01T16:35:38;3.57;;;1.20;;
17763;SDS011;22245;52.832;13.816;2023-02-01T16:39:00;1.90;;;0.97;;
17763;SDS011;22245;52.832;13.816;2023-02-01T16:42:24;2.03;;;1.00;;
17763;SDS011;22245;52.832;13.816;2023-02-01T16:45:47;2.63;;;1.00;;
17763;SDS011;22245;52.832;13.816;2023-02-01T16:49:16;1.90;;;1.20;;
17763;SDS011;22245;52.832;13.816;2023-02-01T16:52:40;2.30;;;0.90;;
17763;SDS011;22245;52.832;13.816;2023-02-01T16:56:04;2.43;;;1.30;;
17763;SDS011;22245;52.832;13.816;2023-02-01T16:59:33;1.63;;;1.07;;
17763;SDS011;22245;52.832;13.816;2023-02-01T17:02:55;4.00;;;0.90;;
17763;SDS011;22245;52.832;13.816;2023-02-01T17:06:18;2.63;;;0.90;;
17763;SDS011;22245;52.832;13.816;2023-02-01T17:09:40;2.17;;;1.13;;
17763;SDS011;22245;52.832;13.816;2023-02-01T17:13:02;1.17;;;0.83;;
17763;SDS011;22245;52.832;13.816;2023-02-01T17:16:26;1.10;;;0.90;;
17763;SDS011;22245;52.832;13.816;2023-02-01T17:19:50;1.30;;;1.00;;
17763;SDS011;22245;52.832;13.816;2023-02-01T17:23:13;1.93;;;1.00;;
17763;SDS011;22245;52.832;13.816;2023-02-01T17:26:35;1.20;;;1.00;;
17763;SDS011;22245;52.832;13.816;2023-02-01T17:29:57;1.23;;;0.73;;
17763;SDS011;22245;52.832;13.816;2023-02-01T17:33:23;1.20;;;1.07;;
17763;SDS011;22245;52.832;13.816;2023-02-01T17:36:55;1.83;;;0.93;;
17763;SDS011;22245;52.832;13.816;2023-02-01T17:40:17;1.23;;;0.90;;
17763;SDS011;22245;52.832;13.816;2023-02-01T17:43:39;4.53;;;0.90;;
17763;SDS011;22245;52.832;13.816;2023-02-01T17:47:01;1.27;;;0.80;;
17763;SDS011;22245;52.832;13.816;2023-02-01T17:50:25;0.90;;;0.60;;
17763;SDS011;22245;52.832;13.816;2023-02-01T17:53:48;1.80;;;0.50;;
17763;SDS011;22245;52.832;13.816;2023-02-01T17:57:10;1.77;;;0.80;;
17763;SDS011;22245;52.832;13.816;2023-02-01T18:00:33;1.80;;;1.10;;
17763;SDS011;22245;52.832;13.816;2023-02-01T18:03:57;1.00;;;0.73;;
17763;SDS011;22245;52.832;13.816;2023-02-01T18:07:20;4.20;;;1.33;;
17763;SDS011;22245;52.832;13.816;2023-02-01T18:10:42;2.40;;;1.30;;
17763;SDS011;22245;52.832;13.816;2023-02-01T18:14:04;2.27;;;1.17;;
17763;SDS011;22245;52.832;13.816;2023-02-01T18:17:26;3.53;;;1.37;;
17763;SDS011;22245;52.832;13.816;2023-02-01T18:20:48;2.60;;;1.87;;
17763;SDS011;22245;52.832;13.816;2023-02-01T18:24:12;3.87;;;1.40;;
17763;SDS011;22245;52.832;13.816;2023-02-01T18:27:35;2.00;;;1.40;;
17763;SDS011;22245;52.832;13.816;2023-02-01T18:30:57;2.50;;;1.20;;
17763;SDS011;22245;52.832;13.816;2023-02-01T18:34:22;3.13;;;1.13;;
17763;SDS011;22245;52.832;13.816;2023-02-01T18:37:44;3.73;;;1.10;;
17763;SDS011;22245;52.832;13.816;2023-02-01T18:41:08;3.27;;;1.30;;
17763;SDS011;22245;52.832;13.816;2023-02-01T18:44:34;3.03;;;1.20;;
17763;SDS011;22245;52.832;13.816;2023-02-01T18:47:56;5.63;;;1.77;;
17763;SDS011;22245;52.832;13.816;2023-02-01T18:51:19;2.17;;;1.30;;
17763;SDS011;22245;52.832;13.816;2023-02-01T18:54:43;5.03;;;1.50;;
17763;SDS011;22245;52.832;13.816;2023-02-01T18:58:20;5.47;;;1.60;;
17763;SDS011;22245;52.832;13.816;2023-02-01T19:01:45;6.30;;;1.67;;
17763;SDS011;22245;52.832;13.816;2023-02-01T19:05:07;7.57;;;1.80;;
17763;SDS011;22245;52.832;13.816;2023-02-01T19:08:31;7.47;;;2.00;;
17763;SDS011;22245;52.832;13.816;2023-02-01T19:11:52;8.03;;;2.40;;
17763;SDS011;22245;52.832;13.816;2023-02-01T19:15:16;4.77;;;1.83;;
17763;SDS011;22245;52.832;13.816;2023-02-01T19:18:39;8.70;;;1.60;;
17763;SDS011;22245;52.832;13.816;2023-02-01T19:22:01;6.73;;;1.87;;
17763;SDS011;22245;52.832;13.816;2023-02-01T19:25:23;12.70;;;2.10;;
17763;SDS011;22245;52.832;13.816;2023-02-01T19:28:46;5.57;;;1.67;;
17763;SDS011;22245;52.832;13.816;2023-02-01T19:32:09;5.13;;;1.97;;
17763;SDS011;22245;52.832;13.816;2023-02-01T19:35:31;5.47;;;1.80;;
17763;SDS011;22245;52.832;13.816;2023-02-01T19:38:53;9.53;;;2.33;;
17763;SDS011;22245;52.832;13.816;2023-02-01T19:42:14;9.67;;;1.87;;
17763;SDS011;22245;52.832;13.816;2023-02-01T19:45:36;9.90;;;2.00;;
17763;SDS011;22245;52.832;13.816;2023-02-01T19:48:59;9.37;;;1.63;;
17763;SDS011;22245;52.832;13.816;2023-02-01T19:52:20;9.80;;;1.97;;
17763;SDS011;22245;52.832;13.816;2023-02-01T19:55:43;9.67;;;1.97;;
17763;SDS011;22245;52.832;13.816;2023-02-01T19:59:04;13.17;;;2.37;;
17763;SDS011;22245;52.832;13.816;2023-02-01T20:02:26;7.03;;;1.80;;
17763;SDS011;22245;52.832;13.816;2023-02-01T20:05:51;11.53;;;2.33;;
17763;SDS011;22245;52.832;13.816;2023-02-01T20:09:15;11.97;;;2.60;;
17763;SDS011;22245;52.832;13.816;2023-02-01T20:12:38;9.80;;;2.60;;
17763;SDS011;22245;52.832;13.816;2023-02-01T20:16:00;13.33;;;2.40;;
17763;SDS011;22245;52.832;13.816;2023-02-01T20:19:22;10.03;;;2.77;;
17763;SDS011;22245;52.832;13.816;2023-02-01T20:22:45;13.03;;;2.30;;
17763;SDS011;22245;52.832;13.816;2023-02-01T20:26:08;9.83;;;1.90;;